Time;durP1;ratioP1;P1;durP2;ratioP2;P2;SDS_P1;SDS_P2;PMS_P1;PMS_P2;Temp;Humidity;BMP_temperature;BMP_pressure;BME280_temperature;BME280_humidity;BME280_pressure;Samples;Min_cycle;Max_cycle;Signal;HPM_P1;HPM_P2
2022/08/29 05:01:19;;;;;;;10.87;6.80;;;15.60;99.90;;;;;;5962999;23;20026;31
2022/08/29 05:03:46;;;;;;;10.18;5.97;;;15.60;99.90;;;;;;4861214;29;20116;-74
2022/08/29 05:06:13;;;;;;;13.80;8.13;;;15.70;99.90;;;;;;4870136;29;20037;-75
2022/08/29 05:08:41;;;;;;;19.75;10.77;;;15.70;99.90;;;;;;4870305;29;20017;-76
2022/08/29 05:11:18;;;;;;;24.85;13.48;;;15.80;99.90;;;;;;4869792;29;20044;-73
2022/08/29 05:13:45;;;;;;;23.75;11.68;;;15.90;99.90;;;;;;4870747;29;20034;-74
2022/08/29 05:16:13;;;;;;;22.30;11.95;;;15.90;99.90;;;;;;4869439;29;20040;-73
2022/08/29 05:18:40;;;;;;;22.45;12.63;;;16.00;99.90;;;;;;4869940;29;20050;-73
2022/08/29 05:21:06;;;;;;;20.23;12.35;;;16.10;99.90;;;;;;4853088;29;20034;-76
2022/08/29 05:23:33;;;;;;;18.67;11.32;;;16.20;99.90;;;;;;4867879;29;20025;-74
2022/08/29 05:26:02;;;;;;;18.92;12.13;;;16.30;99.90;;;;;;4866975;29;20087;-74
2022/08/29 05:28:29;;;;;;;19.83;12.98;;;16.30;99.90;;;;;;4884130;29;20068;-72
2022/08/29 05:30:55;;;;;;;20.75;12.15;;;16.40;99.90;;;;;;4869352;29;20044;-74
2022/08/29 05:33:21;;;;;;;18.63;12.20;;;16.40;99.90;;;;;;4870100;29;20146;-72
2022/08/29 05:35:47;;;;;;;17.75;11.85;;;16.40;99.90;;;;;;4869835;29;20032;-72
2022/08/29 05:38:13;;;;;;;19.83;12.00;;;16.50;99.90;;;;;;4869292;29;20086;-73
2022/08/29 05:40:40;;;;;;;16.77;11.43;;;16.60;99.90;;;;;;4869810;29;20025;-73
2022/08/29 05:43:07;;;;;;;15.88;11.73;;;16.70;99.90;;;;;;4869483;29;20029;-72
2022/08/29 05:45:33;;;;;;;15.93;10.68;;;16.80;99.90;;;;;;4869663;29;20033;-77
2022/08/29 05:48:03;;;;;;;18.17;10.88;;;16.90;99.90;;;;;;4869589;29;20066;-74
2022/08/29 05:50:29;;;;;;;17.50;11.07;;;17.00;99.90;;;;;;4870042;29;20280;-73
2022/08/29 05:52:54;;;;;;;13.80;10.23;;;17.10;99.90;;;;;;4869377;29;20041;-75
2022/08/29 05:55:20;;;;;;;15.93;10.25;;;17.10;99.90;;;;;;4868781;29;20270;-74
2022/08/29 05:57:48;;;;;;;14.80;10.48;;;17.20;99.90;;;;;;4869799;29;20274;-74
2022/08/29 06:00:15;;;;;;;17.10;10.73;;;17.30;99.90;;;;;;4869359;29;20194;-72
2022/08/29 06:02:41;;;;;;;13.63;9.23;;;17.40;99.90;;;;;;4880939;29;20049;-72
2022/08/29 06:05:07;;;;;;;10.38;7.85;;;17.50;99.90;;;;;;4871383;29;20056;-74
2022/08/29 06:07:33;;;;;;;13.52;9.32;;;17.50;99.90;;;;;;4887927;29;20068;-74
2022/08/29 06:10:00;;;;;;;13.75;8.73;;;17.60;99.90;;;;;;4887715;29;20326;-74
2022/08/29 06:12:26;;;;;;;16.17;10.73;;;17.70;99.90;;;;;;4888243;29;20040;-73
2022/08/29 06:14:52;;;;;;;12.57;9.85;;;17.70;99.90;;;;;;4888197;29;20036;-79
2022/08/29 06:17:38;;;;;;;15.70;9.93;;;17.80;99.90;;;;;;4861294;29;20092;-75
2022/08/29 06:20:08;;;;;;;14.45;9.73;;;17.80;99.90;;;;;;4887169;29;20052;-73
2022/08/29 06:22:35;;;;;;;14.73;9.63;;;17.90;99.90;;;;;;4871238;29;20052;-74
2022/08/29 06:25:01;;;;;;;14.80;10.23;;;18.00;99.90;;;;;;4862794;29;20245;-75
2022/08/29 06:27:27;;;;;;;17.40;9.60;;;18.00;99.90;;;;;;4872629;29;20025;-74
2022/08/29 06:29:53;;;;;;;15.48;10.30;;;18.10;99.90;;;;;;4871162;29;20025;-73
2022/08/29 06:32:18;;;;;;;16.30;10.48;;;18.30;99.90;;;;;;4886378;29;20056;-75
2022/08/29 06:34:44;;;;;;;15.40;9.45;;;18.40;99.90;;;;;;4895617;29;20204;-73
2022/08/29 06:37:10;;;;;;;14.13;9.52;;;18.40;99.90;;;;;;4902150;29;20028;-74
2022/08/29 06:39:36;;;;;;;13.68;8.32;;;18.60;99.90;;;;;;4887520;29;20040;-73
2022/08/29 06:42:02;;;;;;;13.25;8.93;;;18.80;99.90;;;;;;4887228;29;20037;-73
2022/08/29 06:44:30;;;;;;;14.73;9.73;;;18.90;99.90;;;;;;4905468;29;20033;-76
2022/08/29 06:46:56;;;;;;;13.43;9.50;;;18.90;99.90;;;;;;4874903;29;20104;-73
2022/08/29 06:49:23;;;;;;;12.77;10.15;;;18.90;99.90;;;;;;4891011;29;20037;-74
2022/08/29 06:51:53;;;;;;;13.15;9.13;;;19.00;99.90;;;;;;4872803;29;20025;-73
2022/08/29 06:54:22;;;;;;;14.40;10.23;;;19.00;99.90;;;;;;4873137;29;20036;-73
2022/08/29 06:56:48;;;;;;;;;;;19.10;99.90;;;;;;4890546;29;20311;-74
2022/08/29 06:59:15;;;;;;;12.35;8.57;;;19.20;99.90;;;;;;4873218;29;19914;-75
2022/08/29 07:01:42;;;;;;;17.15;10.13;;;19.20;99.90;;;;;;4873440;29;20104;-73
2022/08/29 07:04:10;;;;;;;12.07;9.68;;;19.30;99.90;;;;;;4889869;29;20036;-78
2022/08/29 07:06:37;;;;;;;15.00;9.07;;;19.30;99.90;;;;;;4890183;29;20088;-76
2022/08/29 07:09:04;;;;;;;17.30;9.75;;;19.40;99.90;;;;;;4889366;29;20247;-75
2022/08/29 07:11:31;;;;;;;10.32;8.15;;;19.50;99.90;;;;;;4882362;29;20063;-73
2022/08/29 07:14:03;;;;;;;13.75;8.57;;;19.70;99.90;;;;;;4876531;29;20066;-77
2022/08/29 07:16:36;;;;;;;14.25;8.95;;;19.80;99.90;;;;;;4889489;29;20096;-74
2022/08/29 07:19:06;;;;;;;13.38;9.60;;;19.90;99.90;;;;;;4878420;29;20033;-75
2022/08/29 07:21:42;;;;;;;18.30;8.73;;;20.00;99.90;;;;;;4877033;29;20033;-75
2022/08/29 07:24:21;;;;;;;12.43;8.48;;;20.00;99.90;;;;;;4869836;29;20045;-74
2022/08/29 07:26:46;;;;;;;15.60;8.55;;;20.00;99.90;;;;;;4883678;29;20040;-74
2022/08/29 07:29:16;;;;;;;11.63;8.25;;;20.10;99.90;;;;;;4888479;29;20105;-74
2022/08/29 07:31:42;;;;;;;11.50;8.13;;;20.20;99.90;;;;;;4889539;29;20032;-75
2022/08/29 07:34:09;;;;;;;12.88;8.80;;;20.30;99.90;;;;;;4891024;29;20020;-78
2022/08/29 07:36:36;;;;;;;11.98;8.10;;;20.40;99.90;;;;;;4875879;29;20024;-75
2022/08/29 07:39:22;;;;;;;15.23;9.60;;;20.40;99.90;;;;;;4890546;29;20067;-76
2022/08/29 07:41:49;;;;;;;12.32;8.85;;;20.50;99.90;;;;;;4889110;29;20041;-74
2022/08/29 07:44:16;;;;;;;17.65;10.35;;;20.60;99.90;;;;;;4888816;29;20303;-74
2022/08/29 07:46:43;;;;;;;14.87;9.17;;;20.60;99.90;;;;;;4889265;29;20036;-75
2022/08/29 07:49:10;;;;;;;13.52;9.43;;;20.70;99.90;;;;;;4888521;29;20298;-73
2022/08/29 07:51:37;;;;;;;12.60;7.63;;;20.80;99.90;;;;;;4888874;29;20093;-74
2022/08/29 07:54:03;;;;;;;10.18;7.85;;;20.90;99.90;;;;;;4889018;29;20064;-75
2022/08/29 07:56:32;;;;;;;16.02;9.95;;;21.10;99.90;;;;;;4889251;29;20333;-74
2022/08/29 07:58:58;;;;;;;;;;;21.20;99.90;;;;;;4889540;29;20049;-74
2022/08/29 08:01:25;;;;;;;13.10;9.02;;;21.30;99.90;;;;;;4887580;29;19974;-73
2022/08/29 08:03:52;;;;;;;11.90;8.73;;;21.30;99.90;;;;;;4870548;29;20037;-73
2022/08/29 08:06:20;;;;;;;12.55;7.85;;;21.40;99.90;;;;;;4869716;29;20029;-74
2022/08/29 08:08:47;;;;;;;12.10;8.10;;;21.60;99.90;;;;;;4853651;29;20057;-73
2022/08/29 08:11:13;;;;;;;13.80;7.97;;;21.70;99.90;;;;;;4869578;29;20025;-72
2022/08/29 08:13:39;;;;;;;14.30;7.55;;;21.80;99.90;;;;;;4869762;29;20065;-73
2022/08/29 08:16:10;;;;;;;13.18;7.60;;;21.90;99.90;;;;;;4870271;29;20215;-72
2022/08/29 08:18:37;;;;;;;12.02;6.97;;;22.00;99.90;;;;;;4870076;29;20044;-73
2022/08/29 08:21:03;;;;;;;11.18;6.63;;;22.10;99.90;;;;;;4867165;29;20077;-73
2022/08/29 08:23:29;;;;;;;13.25;7.72;;;22.10;99.90;;;;;;4869681;29;20025;-71
2022/08/29 08:25:55;;;;;;;12.95;7.03;;;22.10;99.90;;;;;;4869642;29;20151;-72
2022/08/29 08:28:21;;;;;;;11.77;6.63;;;22.20;99.80;;;;;;4885323;29;20096;-74
2022/08/29 08:30:46;;;;;;;12.02;7.07;;;22.40;99.50;;;;;;4870980;29;20037;-73
2022/08/29 08:33:12;;;;;;;11.88;7.30;;;22.50;98.30;;;;;;4869711;29;20235;-72
2022/08/29 08:35:41;;;;;;;12.57;6.13;;;22.40;98.50;;;;;;4870014;29;20053;-72
2022/08/29 08:38:10;;;;;;;10.20;6.30;;;22.50;98.60;;;;;;4860274;29;20038;-72
2022/08/29 08:40:46;;;;;;;10.43;7.03;;;22.80;98.10;;;;;;4862409;29;20059;-71
2022/08/29 08:43:16;;;;;;;10.68;6.55;;;22.80;97.60;;;;;;4861456;29;20052;-73
2022/08/29 08:45:43;;;;;;;11.68;7.30;;;22.90;97.60;;;;;;4858599;29;20026;-70
2022/08/29 08:48:35;;;;;;;13.70;6.88;;;22.90;97.40;;;;;;4840883;29;20093;-74
2022/08/29 08:51:06;;;;;;;10.40;6.32;;;23.00;97.00;;;;;;4851147;29;20038;-73
2022/08/29 08:53:43;;;;;;;9.63;6.18;;;23.20;96.90;;;;;;4850729;29;20114;-72
2022/08/29 08:56:21;;;;;;;9.30;5.95;;;23.40;96.60;;;;;;4850350;29;20033;-73
2022/08/29 08:58:50;;;;;;;10.93;5.95;;;23.40;96.10;;;;;;4834911;29;20038;-74
2022/08/29 09:01:31;;;;;;;10.07;6.75;;;23.40;95.80;;;;;;4865612;29;20053;-73
2022/08/29 09:04:20;;;;;;;9.27;5.32;;;23.50;95.60;;;;;;4880207;29;20034;-72
2022/08/29 09:06:57;;;;;;;7.63;6.07;;;23.70;95.80;;;;;;4894707;29;20045;-71
2022/08/29 09:10:01;;;;;;;12.93;5.38;;;24.00;95.30;;;;;;4889450;29;20357;-72
2022/08/29 09:13:03;;;;;;;11.18;6.28;;;24.10;94.30;;;;;;4905577;29;20310;-73
2022/08/29 09:15:41;;;;;;;11.85;6.18;;;24.20;94.00;;;;;;4905963;29;20393;-74
2022/08/29 09:18:29;;;;;;;10.52;5.68;;;24.20;94.00;;;;;;4906004;29;20032;-73
2022/08/29 09:20:55;;;;;;;8.75;5.65;;;24.30;94.30;;;;;;4906241;29;20033;-73
2022/08/29 09:23:37;;;;;;;9.98;6.20;;;24.50;93.80;;;;;;4905659;29;20063;-72
2022/08/29 09:26:03;;;;;;;6.90;5.07;;;24.50;93.80;;;;;;4896388;29;20121;-73
2022/08/29 09:28:29;;;;;;;8.77;5.70;;;24.70;93.30;;;;;;4886674;29;20311;-73
2022/08/29 09:31:23;;;;;;;10.05;5.57;;;24.70;93.10;;;;;;4887178;29;20538;-73
2022/08/29 09:33:59;;;;;;;11.38;5.57;;;24.90;92.80;;;;;;4870752;29;20036;-73
2022/08/29 09:36:51;;;;;;;8.88;5.88;;;25.00;92.60;;;;;;4854942;29;20089;-75
2022/08/29 09:39:22;;;;;;;9.38;5.45;;;25.10;92.00;;;;;;4868394;29;20026;-73
2022/08/29 09:41:57;;;;;;;7.18;4.93;;;25.10;91.60;;;;;;4868764;29;20112;-73
2022/08/29 09:44:32;;;;;;;6.82;5.00;;;25.20;91.80;;;;;;4868156;29;20037;-72
2022/08/29 09:47:08;;;;;;;8.98;5.10;;;25.30;91.40;;;;;;4868630;29;20025;-73
2022/08/29 09:49:43;;;;;;;7.05;4.85;;;25.30;91.40;;;;;;4836990;29;20112;-73
2022/08/29 09:52:11;;;;;;;8.23;5.18;;;25.50;90.70;;;;;;4852059;29;20152;-73
2022/08/29 09:54:37;;;;;;;;;;;25.50;90.70;;;;;;4869226;29;20038;-75
2022/08/29 09:57:23;;;;;;;6.72;5.13;;;25.50;90.90;;;;;;4851951;29;19965;-76
2022/08/29 10:00:15;;;;;;;9.13;5.82;;;25.60;90.90;;;;;;4873065;29;20044;-72
2022/08/29 10:02:45;;;;;;;8.98;5.43;;;25.70;90.40;;;;;;4870011;29;20064;-72
2022/08/29 10:05:28;;;;;;;7.78;4.20;;;25.80;89.60;;;;;;4887021;29;20056;-73
2022/08/29 10:07:57;;;;;;;7.82;4.20;;;25.90;88.30;;;;;;4903101;29;20055;-73
2022/08/29 10:10:29;;;;;;;8.00;4.03;;;26.00;88.00;;;;;;4904972;29;20040;-72
2022/08/29 10:13:07;;;;;;;6.35;3.80;;;26.20;87.70;;;;;;4905488;29;20310;-78
2022/08/29 10:16:01;;;;;;;9.90;4.63;;;26.30;86.80;;;;;;4904953;29;20063;-73
2022/08/29 10:18:45;;;;;;;7.15;4.35;;;26.40;86.50;;;;;;4906386;29;20445;-75
2022/08/29 10:21:28;;;;;;;7.70;4.45;;;26.50;87.10;;;;;;4909717;29;20024;-75
2022/08/29 10:24:30;;;;;;;6.45;4.80;;;26.70;87.40;;;;;;4909331;29;20056;-73
2022/08/29 10:27:14;;;;;;;5.38;3.90;;;26.90;85.20;;;;;;4909195;29;20033;-73
2022/08/29 10:30:05;;;;;;;8.02;3.30;;;27.00;84.30;;;;;;4896385;29;20024;-73
2022/08/29 10:32:55;;;;;;;8.45;3.92;;;27.00;83.00;;;;;;4885235;29;20100;-73
2022/08/29 10:38:54;;;;;;;9.10;4.40;;;27.20;83.40;;;;;;4890007;29;20036;-74
2022/08/29 10:41:59;;;;;;;5.10;3.63;;;27.50;82.90;;;;;;4853311;29;20138;-75
2022/08/29 10:45:12;;;;;;;7.15;3.60;;;27.60;81.40;;;;;;4871776;29;20101;-75
2022/08/29 10:48:09;;;;;;;5.63;3.42;;;27.70;81.00;;;;;;4832003;29;20054;-73
2022/08/29 10:51:04;;;;;;;6.18;3.95;;;27.90;79.90;;;;;;4835265;29;20030;-74
2022/08/29 10:53:35;;;;;;;6.43;3.63;;;28.00;80.00;;;;;;4823133;29;20050;-74
2022/08/29 10:56:26;;;;;;;5.25;3.33;;;28.00;78.40;;;;;;4832610;29;20140;-74
2022/08/29 10:59:37;;;;;;;8.20;3.42;;;28.00;77.40;;;;;;4831654;29;20046;-74
2022/08/29 11:02:25;;;;;;;4.93;3.22;;;28.30;74.90;;;;;;4801347;29;20121;-75
2022/08/29 11:05:07;;;;;;;6.28;3.65;;;28.50;76.40;;;;;;4778136;30;20042;-75
2022/08/29 11:07:42;;;;;;;6.97;3.25;;;28.60;75.60;;;;;;4844435;29;20314;-75
2022/08/29 11:10:25;;;;;;;5.75;3.05;;;28.70;76.30;;;;;;4850796;29;20090;-74
2022/08/29 11:13:01;;;;;;;5.97;3.20;;;28.90;75.30;;;;;;4851000;29;20165;-74
2022/08/29 11:16:14;;;;;;;5.88;3.25;;;29.30;74.10;;;;;;4819620;29;20029;-75
2022/08/29 11:19:18;;;;;;;6.30;3.30;;;29.40;74.10;;;;;;4831937;29;20193;-74
2022/08/29 11:22:08;;;;;;;6.25;2.92;;;29.90;72.90;;;;;;4795547;29;20138;-75
2022/08/29 11:24:40;;;;;;;4.97;3.08;;;30.20;71.50;;;;;;4797095;29;20046;-74
2022/08/29 11:27:26;;;;;;;4.53;2.70;;;30.40;70.30;;;;;;4801263;29;20046;-74
2022/08/29 11:30:29;;;;;;;4.00;2.65;;;30.90;70.40;;;;;;4830084;29;20064;-73
2022/08/29 11:33:11;;;;;;;5.65;3.28;;;31.60;67.50;;;;;;4832103;29;20065;-73
2022/08/29 11:36:11;;;;;;;7.75;3.25;;;31.80;66.50;;;;;;4813133;29;20067;-74
2022/08/29 11:39:20;;;;;;;4.72;2.63;;;32.40;66.80;;;;;;4827165;29;20065;-74
2022/08/29 11:41:49;;;;;;;4.40;2.90;;;33.10;65.00;;;;;;4847215;29;20084;-74
2022/08/29 11:44:24;;;;;;;4.78;2.83;;;33.40;63.90;;;;;;4831296;29;20047;-74
2022/08/29 11:46:53;;;;;;;5.18;2.85;;;33.90;62.20;;;;;;4831776;29;20133;-73
2022/08/29 11:49:44;;;;;;;6.03;2.50;;;34.80;61.50;;;;;;4815462;29;20090;-74
2022/08/29 11:52:10;;;;;;;3.72;2.72;;;35.50;60.20;;;;;;4831834;29;20053;-74
2022/08/29 11:54:38;;;;;;;4.90;2.60;;;35.00;60.50;;;;;;4832841;29;20116;-74
2022/08/29 11:57:07;;;;;;;5.03;2.58;;;35.80;58.50;;;;;;4888785;29;20033;-73
2022/08/29 12:00:01;;;;;;;4.57;2.50;;;36.00;56.60;;;;;;4888597;29;20037;-75
2022/08/29 12:02:38;;;;;;;4.03;2.33;;;37.20;55.80;;;;;;4894660;29;20053;-74
2022/08/29 12:05:07;;;;;;;5.00;2.60;;;37.30;55.00;;;;;;4888861;29;20060;-74
2022/08/29 12:08:11;;;;;;;7.10;3.40;;;36.10;55.80;;;;;;4845173;29;20242;-73
2022/08/29 12:10:54;;;;;;;4.68;2.60;;;37.10;55.70;;;;;;4850011;29;20042;-72
2022/08/29 12:13:45;;;;;;;5.00;2.67;;;37.90;53.80;;;;;;4851039;29;20231;-73
2022/08/29 12:16:12;;;;;;;5.53;2.50;;;37.80;54.40;;;;;;4851692;29;20042;-73
2022/08/29 12:18:51;;;;;;;7.35;2.95;;;38.40;53.40;;;;;;4851022;29;20040;-72
2022/08/29 12:21:35;;;;;;;4.68;2.42;;;38.50;52.60;;;;;;4834636;29;20072;-73
2022/08/29 12:24:31;;;;;;;5.05;2.35;;;38.50;52.50;;;;;;4865627;29;20057;-74
2022/08/29 12:27:45;;;;;;;5.40;2.65;;;39.50;52.20;;;;;;4843599;29;20332;-76
2022/08/29 12:30:13;;;;;;;6.53;3.10;;;40.40;50.70;;;;;;4822544;29;20062;-73
2022/08/29 12:33:10;;;;;;;4.15;2.33;;;40.40;50.40;;;;;;4834941;29;20326;-73
2022/08/29 12:35:54;;;;;;;3.80;1.90;;;41.20;50.30;;;;;;4850705;29;20095;-73
2022/08/29 12:39:02;;;;;;;6.65;2.50;;;41.80;50.10;;;;;;4876902;29;20033;-81
2022/08/29 12:41:36;;;;;;;3.10;2.20;;;42.80;49.70;;;;;;4868009;29;20167;-73
2022/08/29 12:44:06;;;;;;;3.83;2.35;;;42.40;47.30;;;;;;4869526;29;20218;-74
2022/08/29 12:46:41;;;;;;;5.03;2.15;;;41.40;48.10;;;;;;4868925;29;20086;-73
2022/08/29 12:49:35;;;;;;;4.25;2.03;;;41.10;48.40;;;;;;4869243;29;20090;-73
2022/08/29 12:52:04;;;;;;;4.82;2.45;;;42.00;49.30;;;;;;4794701;30;20057;-73
2022/08/29 12:54:45;;;;;;;4.43;2.50;;;42.80;47.30;;;;;;4847656;29;20050;-73
2022/08/29 12:57:32;;;;;;;2.72;1.95;;;42.80;47.90;;;;;;4869188;29;20100;-73
2022/08/29 13:00:10;;;;;;;4.13;2.40;;;42.20;47.10;;;;;;4869296;29;20041;-73
2022/08/29 13:03:04;;;;;;;3.90;2.33;;;41.60;47.50;;;;;;4868550;29;20057;-73
2022/08/29 13:05:41;;;;;;;3.33;2.35;;;42.50;47.10;;;;;;4868994;29;20034;-73
2022/08/29 13:08:28;;;;;;;6.45;2.35;;;43.70;45.60;;;;;;4886878;29;20331;-73
2022/08/29 13:11:28;;;;;;;4.57;2.35;;;43.80;45.50;;;;;;4887724;29;20044;-73
2022/08/29 13:14:12;;;;;;;6.60;2.35;;;43.60;45.70;;;;;;4865571;29;20342;-73
2022/08/29 13:16:44;;;;;;;4.47;2.50;;;43.50;46.90;;;;;;4887024;29;20029;-72
2022/08/29 13:19:21;;;;;;;4.18;2.17;;;44.00;45.30;;;;;;4887630;29;20078;-73
2022/08/29 13:22:04;;;;;;;4.53;2.10;;;42.40;46.10;;;;;;4887290;29;20124;-73
2022/08/29 13:24:33;;;;;;;4.15;2.30;;;40.90;47.30;;;;;;4887123;29;20437;-73
2022/08/29 13:27:01;;;;;;;5.28;2.65;;;41.30;47.10;;;;;;4885569;29;20060;-73
2022/08/29 13:29:42;;;;;;;3.25;2.35;;;42.40;45.90;;;;;;4835301;29;20249;-73
2022/08/29 13:35:32;;;;;;;4.03;2.58;;;40.90;46.40;;;;;;4858862;29;20372;-74
2022/08/29 13:38:18;;;;;;;4.05;2.47;;;40.80;47.40;;;;;;4868286;29;20226;-73
2022/08/29 13:41:24;;;;;;;5.43;3.63;;;42.30;46.50;;;;;;4868563;29;20150;-73
2022/08/29 13:43:49;;;;;;;4.07;2.23;;;42.80;46.10;;;;;;4850644;29;20037;-73
2022/08/29 13:46:22;;;;;;;3.15;2.10;;;45.20;45.90;;;;;;4868546;29;20109;-73
2022/08/29 13:49:08;;;;;;;5.05;2.30;;;46.20;44.40;;;;;;4868417;29;20092;-74
2022/08/29 13:51:37;;;;;;;3.08;2.28;;;46.80;43.80;;;;;;4850586;29;20122;-73
2022/08/29 13:54:08;;;;;;;2.60;2.00;;;47.80;42.60;;;;;;4817992;29;20062;-73
2022/08/29 13:56:37;;;;;;;3.53;2.40;;;48.30;42.50;;;;;;4831376;29;20049;-72
2022/08/29 13:59:24;;;;;;;2.92;1.85;;;45.90;42.70;;;;;;4831887;29;20041;-73
2022/08/29 14:01:49;;;;;;;;;;;45.70;43.00;;;;;;4836547;29;20054;-73
2022/08/29 14:04:24;;;;;;;3.27;2.10;;;45.50;43.30;;;;;;4853612;29;19911;-72
2022/08/29 14:06:59;;;;;;;4.85;2.40;;;46.60;42.60;;;;;;4863870;29;20033;-74
2022/08/29 14:09:33;;;;;;;4.18;2.22;;;46.40;42.60;;;;;;4843568;29;20030;-79
2022/08/29 14:12:05;;;;;;;7.93;2.50;;;45.60;42.90;;;;;;4870134;29;20048;-79
2022/08/29 14:14:30;;;;;;;4.70;2.40;;;45.80;43.00;;;;;;4868213;29;20345;-74
2022/08/29 14:17:26;;;;;;;4.82;2.40;;;45.70;42.90;;;;;;4867429;29;20081;-75
2022/08/29 14:20:08;;;;;;;5.15;2.33;;;43.20;44.30;;;;;;4868491;29;20273;-75
2022/08/29 14:22:35;;;;;;;4.40;2.58;;;40.60;46.20;;;;;;4868148;29;20045;-75
2022/08/29 14:25:14;;;;;;;7.75;2.75;;;40.20;47.40;;;;;;4851368;29;20042;-74
2022/08/29 14:27:47;;;;;;;4.53;2.58;;;40.10;46.70;;;;;;4867819;29;20078;-76
2022/08/29 14:30:18;;;;;;;4.07;2.90;;;39.90;47.00;;;;;;4851531;29;20025;-76
2022/08/29 14:33:14;;;;;;;4.03;2.38;;;38.90;48.30;;;;;;4855123;29;20076;-77
2022/08/29 14:35:49;;;;;;;5.32;2.40;;;39.90;47.70;;;;;;4867494;29;20048;-75
2022/08/29 14:38:27;;;;;;;3.35;2.40;;;42.70;45.50;;;;;;4837515;29;20038;-76
2022/08/29 14:40:56;;;;;;;4.00;2.40;;;44.20;44.50;;;;;;4814874;29;20258;-77
2022/08/29 14:43:22;;;;;;;4.78;2.17;;;44.60;43.60;;;;;;4814175;29;20038;-76
2022/08/29 14:45:50;;;;;;;4.28;2.10;;;45.20;43.20;;;;;;4831397;29;20022;-79
2022/08/29 14:48:22;;;;;;;5.18;2.33;;;46.40;41.80;;;;;;4815257;29;20101;-77
2022/08/29 14:53:58;;;;;;;3.47;2.47;;;47.00;41.80;;;;;;4831242;29;20098;-76
2022/08/29 14:56:31;;;;;;;3.50;2.58;;;46.70;41.40;;;;;;4814417;29;20026;-77
2022/08/29 14:59:02;;;;;;;3.85;2.10;;;46.70;40.70;;;;;;4814334;29;20038;-77
2022/08/29 15:01:37;;;;;;;4.47;2.10;;;47.20;41.30;;;;;;4847229;29;20030;-77
2022/08/29 15:04:15;;;;;;;4.43;2.58;;;47.80;40.30;;;;;;4834080;29;20038;-78
2022/08/29 15:06:51;;;;;;;3.53;2.00;;;47.60;40.30;;;;;;4843070;29;20097;-77
2022/08/29 15:09:21;;;;;;;4.28;1.75;;;46.60;40.40;;;;;;4839766;29;20062;-80
2022/08/29 15:11:47;;;;;;;4.55;2.60;;;46.50;41.20;;;;;;4839637;29;20043;-78
2022/08/29 15:15:03;;;;;;;;;;;;;;;;;;;;;
2022/08/29 15:18:20;;;;;;;;;;;;;;;;;;;;;
2022/08/29 15:36:02;;;;;;;2.80;1.75;;;47.50;40.20;;;;;;4767374;30;20233;-77
2022/08/29 15:42:41;;;;;;;;;;;48.10;39.60;;;;;;4778037;30;20041;-76
2022/08/29 15:48:59;;;;;;;4.03;2.33;;;47.30;40.20;;;;;;4794893;30;20035;-80
2022/08/29 15:51:25;;;;;;;3.50;2.25;;;47.40;40.10;;;;;;4780826;30;20039;-80
2022/08/29 15:54:20;;;;;;;3.65;2.30;;;46.90;39.80;;;;;;4795599;29;20104;-79
2022/08/29 15:57:04;;;;;;;3.75;2.40;;;45.60;40.80;;;;;;4765731;30;20035;-78
2022/08/29 15:59:41;;;;;;;3.00;2.10;;;44.30;42.10;;;;;;4803879;29;20285;-78
2022/08/29 16:02:42;;;;;;;3.65;2.30;;;43.70;42.50;;;;;;4814622;29;20057;-77
2022/08/29 16:05:54;;;;;;;4.78;3.70;;;44.00;42.80;;;;;;4821887;29;20083;-77
2022/08/29 16:08:26;;;;;;;4.95;4.10;;;42.70;44.30;;;;;;4835015;29;20034;-76
2022/08/29 16:14:06;;;;;;;4.95;3.92;;;41.30;44.30;;;;;;4826091;29;20030;-77
2022/08/29 16:16:46;;;;;;;6.90;4.47;;;40.90;45.00;;;;;;4818082;29;20026;-77
2022/08/29 16:19:14;;;;;;;4.13;3.28;;;41.30;44.40;;;;;;4834795;29;20053;-76
2022/08/29 16:25:09;;;;;;;4.65;2.28;;;42.30;44.70;;;;;;4834777;29;20033;-78
2022/08/29 16:27:37;;;;;;;6.80;2.80;;;42.60;43.70;;;;;;4834614;29;20320;-76
2022/08/29 16:30:13;;;;;;;3.63;2.30;;;43.00;43.20;;;;;;4818263;29;20045;-76
2022/08/29 16:33:04;;;;;;;3.60;2.25;;;43.10;43.20;;;;;;4821322;29;20095;-77
2022/08/29 16:35:36;;;;;;;3.35;2.17;;;43.80;42.30;;;;;;4817966;29;20254;-77
2022/08/29 16:38:21;;;;;;;4.53;2.28;;;43.60;42.60;;;;;;4824144;29;20327;-78
2022/08/29 16:41:09;;;;;;;3.80;2.90;;;43.00;42.50;;;;;;4820386;29;20030;-78
2022/08/29 16:43:52;;;;;;;4.07;3.08;;;43.20;42.70;;;;;;4833221;29;20057;-77
2022/08/29 16:47:07;;;;;;;4.03;2.33;;;42.70;43.00;;;;;;4832731;29;20150;-77
2022/08/29 16:49:52;;;;;;;4.57;2.72;;;42.50;43.00;;;;;;4802720;29;20056;-77
2022/08/29 16:52:49;;;;;;;8.25;4.22;;;42.50;43.10;;;;;;4826606;29;20081;-76
2022/08/29 16:55:18;;;;;;;3.65;2.20;;;42.00;43.70;;;;;;4818176;29;20042;-76
2022/08/29 17:01:00;;;;;;;11.55;7.00;;;40.60;43.80;;;;;;4795922;29;20054;-77
2022/08/29 17:04:03;;;;;;;5.43;3.15;;;40.30;44.60;;;;;;4781289;29;20349;-77
2022/08/29 17:06:33;;;;;;;10.63;7.28;;;38.60;45.50;;;;;;4789400;29;20036;-76
2022/08/29 17:17:25;;;;;;;5.90;4.53;;;35.70;49.20;;;;;;4836004;29;20041;-76
2022/08/29 17:20:20;;;;;;;5.63;3.88;;;33.30;51.20;;;;;;4847825;29;20065;-76
2022/08/29 17:23:35;;;;;;;5.85;3.40;;;33.20;51.50;;;;;;4791823;29;20056;-76
2022/08/29 17:26:25;;;;;;;5.07;4.05;;;32.60;53.00;;;;;;4820818;29;20200;-77
2022/08/29 17:29:18;;;;;;;5.03;3.80;;;31.90;54.40;;;;;;4829654;29;20569;-76
2022/08/29 17:32:00;;;;;;;7.32;4.63;;;31.60;56.00;;;;;;4744412;30;20233;-76
2022/08/29 17:34:31;;;;;;;5.53;3.28;;;30.90;56.10;;;;;;4744848;30;20106;-76
2022/08/29 17:36:57;;;;;;;7.00;4.38;;;30.80;56.00;;;;;;4730131;30;20043;-75
2022/08/29 17:39:24;;;;;;;7.10;4.70;;;30.60;56.60;;;;;;4759557;30;20227;-76
2022/08/29 17:41:53;;;;;;;7.68;4.85;;;30.30;57.30;;;;;;4759212;30;20036;-77
2022/08/29 17:44:19;;;;;;;12.10;7.20;;;30.00;57.90;;;;;;4759512;30;20028;-76
2022/08/29 17:47:06;;;;;;;5.90;3.38;;;29.80;58.30;;;;;;4774087;30;20275;-77
2022/08/29 17:49:39;;;;;;;7.85;4.70;;;29.40;58.60;;;;;;4746815;30;20130;-77
2022/08/29 17:52:05;;;;;;;;;;;29.10;59.20;;;;;;4730583;30;20063;-76
2022/08/29 17:54:37;;;;;;;17.75;9.90;;;28.90;59.90;;;;;;4744181;30;19957;-77
2022/08/29 17:57:15;;;;;;;7.72;4.68;;;28.60;60.30;;;;;;4801780;29;20034;-77
2022/08/29 17:59:50;;;;;;;6.47;4.25;;;28.50;61.20;;;;;;4801518;29;20034;-77
2022/08/29 18:02:34;;;;;;;11.43;6.72;;;28.30;61.00;;;;;;4806738;29;20050;-75
2022/08/29 18:05:04;;;;;;;24.40;17.27;;;28.10;62.00;;;;;;4851290;29;20045;-76
2022/08/29 18:07:30;;;;;;;17.33;12.95;;;28.00;62.70;;;;;;4845287;29;20242;-80
2022/08/29 18:09:59;;;;;;;19.10;12.60;;;27.90;63.40;;;;;;4835135;29;20067;-77
2022/08/29 18:12:42;;;;;;;19.23;14.80;;;27.80;63.80;;;;;;4840654;29;20045;-78
2022/08/29 18:15:10;;;;;;;11.82;7.07;;;27.70;63.90;;;;;;4853462;29;20037;-75
2022/08/29 18:17:40;;;;;;;11.10;5.10;;;27.50;63.90;;;;;;4868961;29;20047;-78
2022/08/29 18:20:09;;;;;;;9.68;5.15;;;27.40;64.60;;;;;;4853202;29;20282;-79
2022/08/29 18:22:42;;;;;;;7.07;3.78;;;27.30;65.30;;;;;;4869011;29;20044;-75
2022/08/29 18:25:31;;;;;;;6.95;3.65;;;27.20;65.50;;;;;;4830228;29;20025;-76
2022/08/29 18:27:59;;;;;;;5.57;3.53;;;27.10;65.50;;;;;;4842958;29;20050;-76
2022/08/29 18:30:42;;;;;;;6.57;3.63;;;27.00;66.10;;;;;;4851105;29;20038;-76
2022/08/29 18:33:08;;;;;;;5.88;3.55;;;26.90;66.60;;;;;;4834679;29;20086;-75
2022/08/29 18:35:37;;;;;;;8.00;4.22;;;26.80;66.30;;;;;;4818939;29;20037;-77
2022/08/29 18:38:09;;;;;;;7.30;4.00;;;26.70;67.20;;;;;;4834692;29;20060;-76
2022/08/29 18:40:38;;;;;;;5.70;4.05;;;26.70;67.20;;;;;;4854037;29;20058;-76
2022/08/29 18:43:17;;;;;;;8.52;4.55;;;26.60;67.40;;;;;;4838407;29;20030;-76
2022/08/29 18:45:45;;;;;;;6.03;3.78;;;26.50;67.50;;;;;;4837403;29;20038;-75
2022/08/29 18:48:20;;;;;;;6.43;3.90;;;26.50;68.00;;;;;;4854490;29;20049;-76
2022/08/29 18:50:47;;;;;;;7.47;4.25;;;26.40;67.50;;;;;;4837823;29;20105;-75
2022/08/29 18:53:22;;;;;;;7.05;4.20;;;26.30;67.80;;;;;;4839926;29;20272;-75
2022/08/29 18:55:58;;;;;;;5.80;4.30;;;26.10;68.50;;;;;;4854217;29;20046;-75
2022/08/29 19:02:30;;;;;;;6.57;3.88;;;25.80;68.90;;;;;;4819378;29;20052;-73
2022/08/29 19:05:29;;;;;;;8.18;4.35;;;25.70;68.90;;;;;;4834913;29;20038;-75
2022/08/29 19:08:05;;;;;;;7.63;4.57;;;25.60;69.00;;;;;;4835160;29;20031;-77
2022/08/29 19:10:34;;;;;;;6.50;3.72;;;25.50;69.30;;;;;;4835667;29;20053;-75
2022/08/29 19:13:07;;;;;;;7.88;4.03;;;25.40;69.60;;;;;;4835614;29;20038;-75
2022/08/29 19:16:03;;;;;;;7.05;3.83;;;25.40;69.60;;;;;;4824087;29;20032;-76
2022/08/29 19:18:29;;;;;;;8.13;3.90;;;25.30;69.60;;;;;;4836166;29;20034;-75
2022/08/29 19:21:09;;;;;;;10.98;4.38;;;25.20;69.40;;;;;;4818933;29;20043;-76
2022/08/29 19:23:53;;;;;;;7.63;4.03;;;25.10;69.20;;;;;;4818970;29;20317;-76
2022/08/29 19:26:31;;;;;;;6.55;4.05;;;24.90;69.30;;;;;;4806103;29;20034;-76
2022/08/29 19:29:01;;;;;;;6.30;4.03;;;24.90;70.10;;;;;;4835048;29;20053;-76